Time;durP1;ratioP1;P1;durP2;ratioP2;P2;SDS_P1;SDS_P2;PMS_P1;PMS_P2;Temp;Humidity;BMP_temperature;BMP_pressure;BME280_temperature;BME280_humidity;BME280_pressure;Samples;Min_cycle;Max_cycle;Signal;HPM_P1;HPM_P2
2023/12/10 04:40:12;;;;;;;20.85;2.78;;;8.20;99.90;;;;;;6168239;22;20348;-76
2023/12/10 04:42:41;;;;;;;20.55;3.20;;;8.30;99.90;;;;;;6178800;23;20013;-75
2023/12/10 04:45:08;;;;;;;24.40;3.80;;;8.40;99.90;;;;;;6178177;23;20014;-75
2023/12/10 04:47:34;;;;;;;25.30;3.00;;;8.40;99.90;;;;;;6176830;23;20093;-76
2023/12/10 04:50:00;;;;;;;22.30;2.80;;;8.50;99.90;;;;;;6178355;23;20080;-75
2023/12/10 04:52:25;;;;;;;14.93;4.03;;;8.50;99.90;;;;;;6180504;23;20040;-74
2023/12/10 04:54:52;;;;;;;29.15;3.35;;;8.60;99.90;;;;;;6180154;23;20020;-76
2023/12/10 04:57:18;;;;;;;26.63;2.92;;;8.70;99.90;;;;;;6178105;23;20009;-76
2023/12/10 04:59:43;;;;;;;14.57;2.20;;;8.70;99.90;;;;;;6176894;23;20076;-76
2023/12/10 05:02:09;;;;;;;21.17;3.00;;;8.60;99.90;;;;;;6178530;23;20009;-76
2023/12/10 05:04:34;;;;;;;23.65;3.03;;;8.70;99.90;;;;;;6177098;23;20070;-76
2023/12/10 05:07:00;;;;;;;12.05;2.25;;;8.70;99.90;;;;;;6180214;23;20016;-76
2023/12/10 05:09:25;;;;;;;19.65;2.55;;;8.70;99.90;;;;;;6178102;23;20005;-76
2023/12/10 05:11:51;;;;;;;20.52;3.08;;;8.70;99.90;;;;;;6179111;23;20009;-75
2023/12/10 05:14:16;;;;;;;22.75;2.53;;;8.70;99.90;;;;;;6180368;23;20028;-78
2023/12/10 05:16:42;;;;;;;16.85;2.95;;;8.70;99.90;;;;;;6177091;23;20020;-76
2023/12/10 05:19:08;;;;;;;20.50;2.85;;;8.70;99.90;;;;;;6178713;23;20005;-76
2023/12/10 05:21:34;;;;;;;32.83;2.63;;;8.70;99.90;;;;;;6178154;23;20012;-76
2023/12/10 05:24:00;;;;;;;24.48;2.85;;;8.70;99.90;;;;;;6180025;23;20449;-77
2023/12/10 05:26:25;;;;;;;29.08;3.65;;;8.80;99.90;;;;;;6177815;23;20009;-77
2023/12/10 05:28:52;;;;;;;25.27;2.47;;;8.70;99.90;;;;;;6178778;23;20852;-76
2023/12/10 05:31:18;;;;;;;21.30;3.03;;;8.80;99.90;;;;;;6178396;23;20005;-77
2023/12/10 05:33:43;;;;;;;27.83;3.30;;;8.70;99.90;;;;;;6177952;23;20028;-76
2023/12/10 05:36:09;;;;;;;31.45;4.20;;;8.80;99.90;;;;;;6179723;23;20009;-76
2023/12/10 05:38:34;;;;;;;26.17;2.72;;;8.80;99.90;;;;;;6177977;23;20474;-77
2023/12/10 05:41:00;;;;;;;15.88;2.38;;;8.80;99.90;;;;;;6177488;23;20351;-76
2023/12/10 05:43:25;;;;;;;19.73;3.22;;;8.80;99.90;;;;;;6180344;23;20054;-76
2023/12/10 05:45:51;;;;;;;23.23;4.13;;;8.80;99.90;;;;;;6176850;23;20009;-76
2023/12/10 05:53:27;;;;;;;15.13;3.22;;;8.90;99.90;;;;;;6159342;22;20366;-72
2023/12/10 05:55:53;;;;;;;15.93;3.47;;;8.90;99.90;;;;;;6177794;23;20009;-73
2023/12/10 05:58:19;;;;;;;16.08;3.17;;;8.80;99.90;;;;;;6179814;23;20646;-73
2023/12/10 06:00:44;;;;;;;25.65;4.20;;;8.80;99.90;;;;;;6178898;23;20080;-73
2023/12/10 06:03:10;;;;;;;22.58;3.45;;;8.70;99.90;;;;;;6179727;23;20055;-73
2023/12/10 06:05:35;;;;;;;12.80;2.65;;;8.80;99.90;;;;;;6177064;23;20017;-72
2023/12/10 06:08:01;;;;;;;25.48;2.75;;;8.80;99.90;;;;;;6180334;23;20023;-74
2023/12/10 06:10:27;;;;;;;12.35;2.38;;;8.80;99.90;;;;;;6177040;23;20028;-75
2023/12/10 06:12:52;;;;;;;25.83;2.45;;;8.80;99.90;;;;;;6177933;23;20013;-73
2023/12/10 06:15:18;;;;;;;16.05;2.35;;;8.80;99.90;;;;;;6179636;23;20012;-74
2023/12/10 06:17:43;;;;;;;10.05;1.73;;;8.80;99.90;;;;;;6179027;23;20015;-74
2023/12/10 06:20:09;;;;;;;19.63;2.17;;;8.80;99.90;;;;;;6178255;23;20044;-73
2023/12/10 06:22:35;;;;;;;23.55;2.92;;;8.90;99.90;;;;;;6176509;23;20112;-73
2023/12/10 06:25:00;;;;;;;17.42;3.50;;;8.90;99.90;;;;;;6178137;23;20031;-73
2023/12/10 06:27:26;;;;;;;28.75;2.22;;;8.80;99.90;;;;;;6178388;23;20032;-73
2023/12/10 06:29:51;;;;;;;22.58;2.40;;;8.80;99.90;;;;;;6202235;23;20001;-72
2023/12/10 06:32:17;;;;;;;16.38;2.72;;;8.80;99.90;;;;;;6177438;23;20009;-73
2023/12/10 06:34:43;;;;;;;18.98;3.05;;;8.90;99.90;;;;;;6178977;23;20013;-72
2023/12/10 06:37:09;;;;;;;26.85;3.88;;;8.90;99.90;;;;;;6178039;23;20016;-73
2023/12/10 06:39:34;;;;;;;16.48;2.25;;;8.90;99.90;;;;;;6176486;23;20005;-73
2023/12/10 06:42:00;;;;;;;14.52;2.95;;;8.90;99.90;;;;;;6179314;23;20075;-73
2023/12/10 06:44:27;;;;;;;16.30;2.22;;;8.90;99.90;;;;;;6177610;23;20040;-73
2023/12/10 06:46:52;;;;;;;19.23;4.05;;;8.90;99.90;;;;;;6178898;23;20013;-72
2023/12/10 06:49:18;;;;;;;20.35;2.88;;;8.90;99.90;;;;;;6178025;23;20005;-72
2023/12/10 06:51:43;;;;;;;16.27;4.43;;;8.90;99.90;;;;;;6179112;23;20443;-73
2023/12/10 06:54:10;;;;;;;17.23;2.00;;;9.00;99.90;;;;;;6177764;23;20017;-73
2023/12/10 06:56:39;;;;;;;17.30;1.88;;;9.00;99.90;;;;;;6176007;23;20369;-73
2023/12/10 06:59:06;;;;;;;17.77;2.05;;;9.00;99.90;;;;;;6179180;23;20076;-73
2023/12/10 07:01:37;;;;;;;21.48;2.95;;;9.00;99.90;;;;;;6178090;23;20058;-75
2023/12/10 07:04:06;;;;;;;;;;;9.10;99.90;;;;;;6178386;23;20354;-71
2023/12/10 07:06:32;;;;;;;24.08;2.95;;;9.00;99.90;;;;;;6177998;23;19908;-74
2023/12/10 07:08:57;;;;;;;19.33;2.95;;;9.10;99.90;;;;;;6179656;23;20020;-74
2023/12/10 07:11:23;;;;;;;12.52;2.17;;;9.00;99.90;;;;;;6177985;23;20009;-73
2023/12/10 07:13:49;;;;;;;22.27;4.93;;;9.00;99.90;;;;;;6178058;23;20033;-73
2023/12/10 07:16:17;;;;;;;23.38;3.03;;;9.10;99.90;;;;;;6179022;23;20013;-72
2023/12/10 07:18:43;;;;;;;13.70;2.13;;;9.10;99.90;;;;;;6177889;23;20024;-74
2023/12/10 07:21:08;;;;;;;20.35;4.80;;;9.00;99.90;;;;;;6177396;23;20009;-72
2023/12/10 07:23:38;;;;;;;25.02;3.70;;;9.10;99.90;;;;;;6176308;23;20495;-73
2023/12/10 07:26:04;;;;;;;14.80;2.72;;;9.10;99.90;;;;;;6179427;23;20012;-72
2023/12/10 07:28:30;;;;;;;10.05;1.70;;;9.10;99.90;;;;;;6176505;23;20324;-73
2023/12/10 07:30:56;;;;;;;13.80;2.40;;;9.10;99.90;;;;;;6177280;23;20012;-74
2023/12/10 07:33:21;;;;;;;30.10;4.53;;;9.10;99.90;;;;;;6177103;23;20697;-74
2023/12/10 07:35:47;;;;;;;15.27;3.40;;;9.10;99.90;;;;;;6175775;23;20023;-73
2023/12/10 07:38:13;;;;;;;22.17;3.92;;;9.20;99.90;;;;;;6177735;23;20016;-73
2023/12/10 07:40:39;;;;;;;22.38;3.05;;;9.20;99.90;;;;;;6176047;23;20010;-73
2023/12/10 07:43:06;;;;;;;11.63;3.13;;;9.20;99.90;;;;;;6177372;23;20128;-74
2023/12/10 07:45:31;;;;;;;14.38;2.92;;;9.10;99.90;;;;;;6176463;23;20017;-73
2023/12/10 07:47:57;;;;;;;25.02;2.85;;;9.10;99.90;;;;;;6179282;23;20013;-72
2023/12/10 07:50:22;;;;;;;24.13;3.60;;;9.10;99.90;;;;;;6179284;23;20029;-73
2023/12/10 07:52:48;;;;;;;13.05;3.45;;;9.10;99.90;;;;;;6177685;23;20088;-74
2023/12/10 07:55:14;;;;;;;16.13;2.55;;;9.10;99.90;;;;;;6178717;23;20009;-73
2023/12/10 07:57:39;;;;;;;17.52;2.17;;;9.10;99.90;;;;;;6177677;23;20017;-73
2023/12/10 08:00:06;;;;;;;26.50;2.58;;;9.10;99.90;;;;;;6178958;23;20020;-74
2023/12/10 08:02:32;;;;;;;21.13;3.40;;;9.10;99.90;;;;;;6176505;23;20044;-73
2023/12/10 08:04:58;;;;;;;18.45;2.38;;;9.10;99.90;;;;;;6177309;23;20354;-73
2023/12/10 08:07:24;;;;;;;16.65;2.42;;;9.10;99.90;;;;;;6177596;23;20140;-74
2023/12/10 08:09:50;;;;;;;17.70;2.35;;;9.10;99.90;;;;;;6175040;23;20041;-73
2023/12/10 08:12:16;;;;;;;22.77;2.30;;;9.10;99.90;;;;;;6176690;23;20013;-74
2023/12/10 08:14:42;;;;;;;11.20;2.05;;;9.10;99.90;;;;;;6177019;23;20017;-75
2023/12/10 08:17:08;;;;;;;18.38;3.13;;;9.10;99.90;;;;;;6177882;23;20010;-73
2023/12/10 08:19:33;;;;;;;16.90;1.60;;;9.10;99.90;;;;;;6175565;23;20051;-73
2023/12/10 08:22:00;;;;;;;18.77;2.53;;;9.10;99.90;;;;;;6177769;23;20478;-74
2023/12/10 08:24:26;;;;;;;28.35;3.60;;;9.10;99.90;;;;;;6178193;23;20017;-73
2023/12/10 08:26:52;;;;;;;20.08;2.28;;;9.10;99.90;;;;;;6176212;23;20703;-74
2023/12/10 08:29:18;;;;;;;14.98;2.30;;;9.10;99.90;;;;;;6179465;23;20016;-73
2023/12/10 08:31:44;;;;;;;21.73;2.45;;;9.10;99.90;;;;;;6176279;23;20351;-73
2023/12/10 08:34:09;;;;;;;15.90;2.95;;;9.10;99.90;;;;;;6178105;23;20020;-73
2023/12/10 08:36:35;;;;;;;19.55;3.38;;;9.20;99.90;;;;;;6176027;23;20040;-74
2023/12/10 08:39:01;;;;;;;12.77;2.08;;;9.20;99.90;;;;;;6177909;23;20005;-74
2023/12/10 08:41:26;;;;;;;16.35;2.47;;;9.20;99.90;;;;;;6177083;23;20040;-73
2023/12/10 08:43:52;;;;;;;14.90;2.55;;;9.20;99.90;;;;;;6178329;23;20006;-74
2023/12/10 08:46:17;;;;;;;14.60;2.15;;;9.20;99.90;;;;;;6177390;23;20017;-75
2023/12/10 08:48:43;;;;;;;23.10;3.85;;;9.20;99.90;;;;;;6175514;23;20046;-74
2023/12/10 08:51:09;;;;;;;15.18;2.05;;;9.30;99.90;;;;;;6179382;23;20450;-73
2023/12/10 08:53:34;;;;;;;19.98;2.65;;;9.20;99.90;;;;;;6176391;23;20156;-72
2023/12/10 08:56:00;;;;;;;19.17;1.40;;;9.20;99.90;;;;;;6179313;23;20024;-73
2023/12/10 08:58:27;;;;;;;15.27;2.03;;;9.30;99.90;;;;;;6177099;23;20009;-73
2023/12/10 09:00:52;;;;;;;22.95;3.42;;;9.30;99.90;;;;;;6178481;23;20027;-71
2023/12/10 09:03:18;;;;;;;19.92;1.88;;;9.30;99.90;;;;;;6177117;23;20451;-73
2023/12/10 09:05:44;;;;;;;19.85;2.83;;;9.30;99.90;;;;;;6177225;23;20039;-74
2023/12/10 09:08:09;;;;;;;14.98;2.00;;;9.30;99.90;;;;;;6176759;23;20089;-73
2023/12/10 09:10:35;;;;;;;25.90;3.03;;;9.30;99.90;;;;;;6175897;23;20191;-74
2023/12/10 09:13:00;;;;;;;15.68;1.83;;;9.30;99.90;;;;;;6177145;23;20079;-74
2023/12/10 09:15:26;;;;;;;15.50;2.97;;;9.30;99.90;;;;;;6178776;23;20015;-74
2023/12/10 09:17:51;;;;;;;17.52;2.85;;;9.40;99.90;;;;;;6175110;23;20481;-74
2023/12/10 09:20:17;;;;;;;11.23;2.08;;;9.40;99.90;;;;;;6176728;23;20351;-74
2023/12/10 09:22:43;;;;;;;14.25;1.85;;;9.50;99.90;;;;;;6177437;23;20028;-74
2023/12/10 09:25:08;;;;;;;9.80;1.38;;;9.50;99.90;;;;;;6177035;23;20465;-73
2023/12/10 09:27:34;;;;;;;11.10;1.58;;;9.50;99.90;;;;;;6175671;23;20013;-74
2023/12/10 09:29:59;;;;;;;23.88;5.03;;;9.50;99.90;;;;;;6178331;23;20009;-73
2023/12/10 09:32:27;;;;;;;16.30;2.65;;;9.50;99.90;;;;;;6177836;23;20600;-74
2023/12/10 09:34:53;;;;;;;11.93;2.35;;;9.50;99.90;;;;;;6178564;23;20454;-72
2023/12/10 09:37:19;;;;;;;12.73;1.90;;;9.50;99.90;;;;;;6179805;23;20009;-72
2023/12/10 09:39:44;;;;;;;14.45;2.33;;;9.60;99.90;;;;;;6178750;23;20514;-74
2023/12/10 09:42:10;;;;;;;12.00;1.48;;;9.60;99.90;;;;;;6179631;23;20092;-72
2023/12/10 09:44:36;;;;;;;15.55;2.45;;;9.70;99.90;;;;;;6175983;23;20028;-74
2023/12/10 09:47:07;;;;;;;22.13;2.17;;;9.70;99.90;;;;;;6177622;23;20009;-72
2023/12/10 09:49:33;;;;;;;12.73;2.70;;;9.60;99.90;;;;;;6177921;23;20015;-78
2023/12/10 09:51:59;;;;;;;19.85;3.63;;;9.60;99.90;;;;;;6177664;23;20016;-72
2023/12/10 09:54:25;;;;;;;18.05;3.33;;;9.60;99.90;;;;;;6177679;23;20847;-74
2023/12/10 09:56:51;;;;;;;11.93;1.67;;;9.60;99.90;;;;;;6176189;23;20012;-73
2023/12/10 09:59:17;;;;;;;12.32;2.08;;;9.60;99.90;;;;;;6179520;23;20005;-73
2023/12/10 10:01:53;;;;;;;15.68;1.40;;;9.60;99.90;;;;;;6176458;23;20013;-73
2023/12/10 10:04:19;;;;;;;7.82;1.42;;;9.60;99.90;;;;;;6179831;23;20013;-73
2023/12/10 10:06:44;;;;;;;15.23;3.15;;;9.60;99.90;;;;;;6177424;23;20024;-73
2023/12/10 10:09:10;;;;;;;20.10;3.25;;;9.70;99.90;;;;;;6177282;23;20013;-75
2023/12/10 10:11:37;;;;;;;16.52;2.88;;;9.80;99.90;;;;;;6176281;23;20024;-75
2023/12/10 10:14:03;;;;;;;15.45;2.80;;;9.80;99.90;;;;;;6177399;23;20005;-75
2023/12/10 10:16:31;;;;;;;31.17;3.97;;;9.80;99.90;;;;;;6175161;23;20017;-72
2023/12/10 10:18:59;;;;;;;18.23;2.30;;;10.00;99.90;;;;;;6178929;23;20002;-73
2023/12/10 10:21:24;;;;;;;21.98;1.80;;;10.00;99.90;;;;;;6175856;23;20451;-72
2023/12/10 10:23:50;;;;;;;13.30;2.53;;;10.00;99.90;;;;;;6175710;23;20001;-73
2023/12/10 10:26:17;;;;;;;10.65;2.13;;;10.00;99.90;;;;;;6178020;23;20435;-73
2023/12/10 10:28:45;;;;;;;17.80;2.80;;;10.00;99.90;;;;;;6177983;23;20009;-74
2023/12/10 10:31:11;;;;;;;11.15;1.50;;;10.00;99.90;;;;;;6177530;23;20002;-73
2023/12/10 10:33:36;;;;;;;10.23;1.15;;;10.00;99.90;;;;;;6176243;23;20389;-74
2023/12/10 10:36:03;;;;;;;8.13;1.58;;;10.00;99.90;;;;;;6177552;23;20013;-73
2023/12/10 10:38:29;;;;;;;18.08;3.75;;;10.00;99.90;;;;;;6176136;23;20025;-74
2023/12/10 10:41:01;;;;;;;14.65;1.67;;;10.00;99.90;;;;;;6176754;23;20032;-73
2023/12/10 10:43:27;;;;;;;12.43;1.92;;;10.10;99.90;;;;;;6179354;23;20476;-73
2023/12/10 10:45:53;;;;;;;15.25;2.00;;;10.10;99.90;;;;;;6175841;23;20023;-74
2023/12/10 10:48:22;;;;;;;12.57;2.15;;;10.10;99.90;;;;;;6178570;23;20028;-74
2023/12/10 10:50:49;;;;;;;10.20;1.80;;;10.10;99.90;;;;;;6175735;23;20017;-74
2023/12/10 10:53:15;;;;;;;18.75;2.88;;;10.10;99.90;;;;;;6177128;23;20499;-74
2023/12/10 10:55:41;;;;;;;10.48;1.98;;;10.20;99.90;;;;;;6174753;23;20053;-74
2023/12/10 10:58:23;;;;;;;12.13;1.13;;;10.20;99.90;;;;;;6177977;23;20016;-74
2023/12/10 11:00:49;;;;;;;13.30;2.08;;;10.20;99.90;;;;;;6175541;23;20009;-73
2023/12/10 11:03:16;;;;;;;9.07;1.25;;;10.20;99.90;;;;;;6176012;23;20143;-79
2023/12/10 11:05:42;;;;;;;9.63;1.95;;;10.20;99.90;;;;;;6174112;23;20040;-72
2023/12/10 11:08:10;;;;;;;16.50;2.72;;;10.30;99.90;;;;;;6178794;23;20005;-74
2023/12/10 11:10:42;;;;;;;18.80;3.35;;;10.20;99.90;;;;;;6177430;23;20017;-73
2023/12/10 11:13:07;;;;;;;17.10;2.72;;;10.30;99.90;;;;;;6178784;23;20013;-73
2023/12/10 11:15:33;;;;;;;9.75;1.92;;;10.30;99.90;;;;;;6176036;23;20092;-75
2023/12/10 11:18:00;;;;;;;19.33;2.60;;;10.50;99.90;;;;;;6176932;23;20009;-74
2023/12/10 11:20:43;;;;;;;15.40;1.98;;;10.50;99.90;;;;;;6174959;23;20017;-73
2023/12/10 11:23:16;;;;;;;18.95;2.55;;;10.60;99.90;;;;;;6175462;23;20005;-73
2023/12/10 11:25:43;;;;;;;13.35;1.83;;;10.60;99.90;;;;;;6176721;23;20013;-73
2023/12/10 11:28:17;;;;;;;10.27;2.28;;;10.70;99.90;;;;;;6179061;23;20054;-74
2023/12/10 11:30:44;;;;;;;18.52;3.40;;;10.60;99.90;;;;;;6175899;23;20049;-74
2023/12/10 11:33:12;;;;;;;8.75;1.65;;;10.50;99.90;;;;;;6177659;23;20020;-73
2023/12/10 11:35:38;;;;;;;14.85;2.17;;;10.50;99.90;;;;;;6174516;23;20111;-73
2023/12/10 11:38:04;;;;;;;23.25;2.50;;;10.50;99.90;;;;;;6175093;23;20434;-74
2023/12/10 11:40:30;;;;;;;16.88;2.28;;;10.50;99.90;;;;;;6172906;23;20009;-74
2023/12/10 11:43:04;;;;;;;14.48;2.05;;;10.40;99.90;;;;;;6176371;23;20005;-73
2023/12/10 11:45:30;;;;;;;11.52;2.25;;;10.40;99.90;;;;;;6175935;23;20840;-74
2023/12/10 11:47:55;;;;;;;7.85;1.70;;;10.40;99.90;;;;;;6178919;23;20055;-73
2023/12/10 11:50:21;;;;;;;7.78;1.73;;;10.40;99.90;;;;;;6176699;23;20392;-74
2023/12/10 11:52:46;;;;;;;11.98;1.48;;;10.40;99.90;;;;;;6175763;23;20116;-74
2023/12/10 11:55:12;;;;;;;13.85;1.40;;;10.40;99.90;;;;;;6178424;23;20020;-73
2023/12/10 11:57:42;;;;;;;18.40;1.92;;;10.40;99.90;;;;;;6175488;23;20482;-74
2023/12/10 12:00:12;;;;;;;15.82;2.03;;;10.50;99.90;;;;;;6177788;23;20503;-74
2023/12/10 12:02:42;;;;;;;12.27;2.17;;;10.50;99.90;;;;;;6176511;23;20040;-72
2023/12/10 12:05:13;;;;;;;11.65;2.28;;;10.50;99.90;;;;;;6178710;23;20017;-75
2023/12/10 12:07:40;;;;;;;10.45;1.70;;;10.60;99.90;;;;;;6176940;23;20017;-72
2023/12/10 12:10:07;;;;;;;7.22;1.23;;;10.60;99.90;;;;;;6178608;23;20040;-73
2023/12/10 12:12:46;;;;;;;12.00;1.45;;;10.60;99.90;;;;;;6176306;23;20019;-72
2023/12/10 12:15:14;;;;;;;11.10;1.17;;;10.60;99.90;;;;;;6178736;23;20477;-72
2023/12/10 12:17:41;;;;;;;14.07;1.75;;;10.50;99.90;;;;;;6177790;23;20013;-74
2023/12/10 12:20:14;;;;;;;12.30;1.83;;;10.50;99.90;;;;;;6177604;23;20013;-73
2023/12/10 12:22:40;;;;;;;13.52;2.05;;;10.50;99.90;;;;;;6175926;23;20013;-72
2023/12/10 12:25:06;;;;;;;13.63;2.25;;;10.50;99.90;;;;;;6177496;23;20017;-71
2023/12/10 12:27:31;;;;;;;15.85;1.70;;;10.50;99.90;;;;;;6175477;23;20013;-73
2023/12/10 12:29:57;;;;;;;19.08;2.00;;;10.50;99.90;;;;;;6177567;23;20017;-73
2023/12/10 12:32:22;;;;;;;11.38;1.10;;;10.40;99.90;;;;;;6179453;23;20013;-72
2023/12/10 12:34:48;;;;;;;16.33;2.85;;;10.40;99.90;;;;;;6176840;23;20052;-71
2023/12/10 12:37:14;;;;;;;12.25;2.78;;;10.40;99.90;;;;;;6179215;23;20443;-75
2023/12/10 12:39:39;;;;;;;9.73;2.47;;;10.40;99.90;;;;;;6177623;23;20108;-75
2023/12/10 12:42:05;;;;;;;11.48;1.50;;;10.40;99.90;;;;;;6179121;23;20020;-74
2023/12/10 12:44:30;;;;;;;11.40;1.42;;;10.40;99.90;;;;;;6176415;23;20020;-73
2023/12/10 12:46:56;;;;;;;10.82;3.08;;;10.40;99.90;;;;;;6179145;23;20013;-74
2023/12/10 12:49:21;;;;;;;8.20;0.95;;;10.40;99.90;;;;;;6179025;23;20013;-74
2023/12/10 12:51:47;;;;;;;10.13;1.40;;;10.40;99.90;;;;;;6177450;23;20013;-74
2023/12/10 12:54:12;;;;;;;10.77;1.45;;;10.40;99.90;;;;;;6178837;23;20011;-75
2023/12/10 12:56:40;;;;;;;14.55;1.98;;;10.40;99.90;;;;;;6175972;23;20013;-74
2023/12/10 12:59:06;;;;;;;21.25;1.90;;;10.30;99.90;;;;;;6177222;23;20005;-72
2023/12/10 13:01:32;;;;;;;9.98;1.42;;;10.30;99.90;;;;;;6174489;23;20451;-73
2023/12/10 13:03:57;;;;;;;13.70;1.83;;;10.30;99.90;;;;;;6179169;23;20009;-72
2023/12/10 13:06:23;;;;;;;10.30;1.77;;;10.30;99.90;;;;;;6180012;23;20005;-73
2023/12/10 13:08:49;;;;;;;15.30;2.95;;;10.20;99.90;;;;;;6175288;23;20063;-73
2023/12/10 13:11:15;;;;;;;13.65;2.70;;;10.30;99.90;;;;;;6178241;23;20001;-73
2023/12/10 13:13:41;;;;;;;17.08;1.85;;;10.20;99.90;;;;;;6178489;23;20009;-74
2023/12/10 13:16:06;;;;;;;14.90;1.95;;;10.20;99.90;;;;;;6177682;23;20071;-74
2023/12/10 13:18:32;;;;;;;11.75;2.33;;;10.20;99.90;;;;;;6178033;23;20080;-74
2023/12/10 13:20:59;;;;;;;14.60;2.40;;;10.20;99.90;;;;;;6177719;23;20013;-74
2023/12/10 13:23:24;;;;;;;12.98;3.28;;;10.20;99.90;;;;;;6180080;23;20058;-73
2023/12/10 13:25:50;;;;;;;23.25;3.58;;;10.20;99.90;;;;;;6173674;23;20833;-74
2023/12/10 13:28:15;;;;;;;20.10;3.17;;;10.20;99.90;;;;;;6176528;23;20084;-75
2023/12/10 13:30:41;;;;;;;22.38;2.03;;;10.30;99.90;;;;;;6176636;23;20013;-74
2023/12/10 13:33:07;;;;;;;22.40;2.90;;;10.30;99.90;;;;;;6176714;23;20013;-75
2023/12/10 13:35:32;;;;;;;16.73;2.47;;;10.30;99.90;;;;;;6175962;23;20017;-75
2023/12/10 13:37:58;;;;;;;19.98;3.58;;;10.30;99.90;;;;;;6177168;23;20015;-74
2023/12/10 13:40:23;;;;;;;21.95;2.67;;;10.30;99.90;;;;;;6177577;23;20021;-75
2023/12/10 13:42:49;;;;;;;17.33;2.80;;;10.30;99.90;;;;;;6177475;23;20043;-74
2023/12/10 13:45:15;;;;;;;28.05;3.03;;;10.30;99.90;;;;;;6178520;23;20028;-74
2023/12/10 13:47:40;;;;;;;26.27;4.82;;;10.30;99.90;;;;;;6175548;23;20017;-74
2023/12/10 13:50:06;;;;;;;22.17;3.80;;;10.30;99.90;;;;;;6178681;23;20021;-73
2023/12/10 13:52:32;;;;;;;22.63;2.80;;;10.30;99.90;;;;;;6177759;23;20024;-74
2023/12/10 13:54:58;;;;;;;27.48;4.07;;;10.40;99.90;;;;;;6177334;23;20009;-75
2023/12/10 13:57:24;;;;;;;20.50;3.63;;;10.40;99.90;;;;;;6176209;23;20017;-74
2023/12/10 13:59:50;;;;;;;17.30;2.80;;;10.30;99.90;;;;;;6175785;23;20032;-75
2023/12/10 14:02:15;;;;;;;20.35;2.95;;;10.30;99.90;;;;;;6176698;23;20001;-73
2023/12/10 14:04:41;;;;;;;20.08;3.85;;;10.30;99.90;;;;;;6176149;23;20461;-74
2023/12/10 14:07:06;;;;;;;24.23;3.38;;;10.30;99.90;;;;;;6176361;23;20462;-74
2023/12/10 14:09:35;;;;;;;24.52;3.70;;;10.30;99.90;;;;;;6175170;23;20246;-74
2023/12/10 14:12:01;;;;;;;24.17;4.65;;;10.30;99.90;;;;;;6176570;23;20059;-75
2023/12/10 14:14:27;;;;;;;32.58;3.92;;;10.30;99.90;;;;;;6178984;23;20033;-74
2023/12/10 14:16:52;;;;;;;22.35;2.97;;;10.40;99.90;;;;;;6174635;23;20012;-72
2023/12/10 14:19:18;;;;;;;20.23;3.95;;;10.30;99.90;;;;;;6176462;23;20063;-74
2023/12/10 14:21:43;;;;;;;28.75;3.50;;;10.30;99.90;;;;;;6175904;23;20032;-74
2023/12/10 14:24:11;;;;;;;22.48;3.92;;;10.30;99.90;;;;;;6177049;23;20060;-73
2023/12/10 14:26:37;;;;;;;24.55;3.15;;;10.30;99.90;;;;;;6175118;23;20124;-74
2023/12/10 14:29:03;;;;;;;30.15;4.80;;;10.30;99.90;;;;;;6177010;23;20339;-74
2023/12/10 14:31:30;;;;;;;24.10;3.30;;;10.30;99.90;;;;;;6176293;23;20009;-77
2023/12/10 14:33:56;;;;;;;26.08;3.58;;;10.30;99.90;;;;;;6178500;23;20009;-74
2023/12/10 14:36:21;;;;;;;25.83;3.78;;;10.30;99.90;;;;;;6177044;23;20030;-74
2023/12/10 14:38:47;;;;;;;32.13;4.72;;;10.30;99.90;;;;;;6175684;23;20013;-74
2023/12/10 14:41:12;;;;;;;29.55;4.93;;;10.30;99.90;;;;;;6176512;23;20016;-75
2023/12/10 14:43:38;;;;;;;30.17;4.30;;;10.30;99.90;;;;;;6176547;23;20103;-74
2023/12/10 14:46:04;;;;;;;21.48;4.53;;;10.40;99.90;;;;;;6176780;23;20247;-74
2023/12/10 14:48:29;;;;;;;26.17;3.88;;;10.40;99.90;;;;;;6173081;23;20009;-76
2023/12/10 14:50:55;;;;;;;26.85;4.47;;;10.40;99.90;;;;;;6176313;23;20091;-73
2023/12/10 14:53:21;;;;;;;26.30;3.90;;;10.40;99.90;;;;;;6176089;23;20028;-73
2023/12/10 14:55:46;;;;;;;26.23;5.57;;;10.40;99.90;;;;;;6175371;23;20455;-73
2023/12/10 14:58:12;;;;;;;23.55;5.10;;;10.40;99.90;;;;;;6175687;23;20013;-72
2023/12/10 15:00:37;;;;;;;22.38;3.53;;;10.40;99.90;;;;;;6176860;23;20115;-74
2023/12/10 15:03:03;;;;;;;24.63;4.38;;;10.40;99.90;;;;;;6175974;23;20435;-75
2023/12/10 15:05:28;;;;;;;24.85;3.75;;;10.40;99.90;;;;;;6177714;23;20324;-73
2023/12/10 15:07:54;;;;;;;22.77;3.30;;;10.40;99.90;;;;;;6173818;23;20016;-73
2023/12/10 15:10:19;;;;;;;18.98;3.47;;;10.50;99.90;;;;;;6176075;23;20071;-73
2023/12/10 15:12:45;;;;;;;15.90;3.10;;;10.40;99.90;;;;;;6174438;23;20082;-74
2023/12/10 15:15:11;;;;;;;20.30;3.10;;;10.30;99.90;;;;;;6177706;23;20013;-74
2023/12/10 15:17:37;;;;;;;15.70;3.53;;;10.30;99.90;;;;;;6175144;23;20063;-74
2023/12/10 15:20:06;;;;;;;29.48;3.53;;;10.30;99.90;;;;;;6175794;23;20005;-74
2023/12/10 15:22:32;;;;;;;20.88;2.78;;;10.20;99.90;;;;;;6173755;23;20036;-73
2023/12/10 15:24:57;;;;;;;15.80;2.75;;;10.20;99.90;;;;;;6176154;23;20029;-74
2023/12/10 15:27:23;;;;;;;23.75;4.30;;;10.20;99.90;;;;;;6176021;23;20012;-73
2023/12/10 15:29:48;;;;;;;21.80;3.25;;;10.10;99.90;;;;;;6174060;23;20025;-73
2023/12/10 15:32:15;;;;;;;21.50;3.38;;;10.10;99.90;;;;;;6175866;23;20351;-73
2023/12/10 15:34:41;;;;;;;13.70;2.55;;;10.10;99.90;;;;;;6176495;23;20052;-74
2023/12/10 15:37:06;;;;;;;11.38;2.75;;;10.10;99.90;;;;;;6175747;23;20013;-73
2023/12/10 15:39:32;;;;;;;18.75;2.20;;;10.10;99.90;;;;;;6176242;23;20013;-73
2023/12/10 15:41:58;;;;;;;24.88;2.80;;;10.00;99.90;;;;;;6177487;23;20523;-73
2023/12/10 15:44:23;;;;;;;11.02;1.83;;;10.00;99.90;;;;;;6175386;23;20359;-73
2023/12/10 15:46:49;;;;;;;12.30;2.83;;;10.00;99.90;;;;;;6175103;23;20005;-75
2023/12/10 15:49:15;;;;;;;9.00;2.50;;;10.00;99.90;;;;;;6175411;23;20468;-74
2023/12/10 15:51:41;;;;;;;20.77;1.88;;;10.00;99.90;;;;;;6176443;23;20343;-74
2023/12/10 15:54:06;;;;;;;14.95;2.53;;;10.00;99.90;;;;;;6175566;23;20721;-75
2023/12/10 15:56:32;;;;;;;11.77;1.77;;;9.90;99.90;;;;;;6174244;23;20473;-73
2023/12/10 15:58:57;;;;;;;16.35;2.70;;;9.90;99.90;;;;;;6175933;23;20013;-74
2023/12/10 16:01:23;;;;;;;13.70;2.50;;;9.90;99.90;;;;;;6178632;23;20135;-74
2023/12/10 16:03:49;;;;;;;10.48;2.42;;;9.80;99.90;;;;;;6176892;23;20024;-74
2023/12/10 16:06:15;;;;;;;14.05;2.58;;;9.60;99.90;;;;;;6176072;23;20076;-74
2023/12/10 16:08:41;;;;;;;16.40;2.72;;;9.40;99.90;;;;;;6176969;23;20451;-73
2023/12/10 16:11:07;;;;;;;18.15;3.17;;;9.30;99.90;;;;;;6176902;23;20087;-74
2023/12/10 16:13:33;;;;;;;15.50;3.67;;;9.20;99.90;;;;;;6175065;23;20013;-74
2023/12/10 16:15:58;;;;;;;12.77;1.98;;;9.10;99.90;;;;;;6177979;23;20013;-74
2023/12/10 16:18:24;;;;;;;13.05;2.22;;;9.00;99.90;;;;;;6176307;23;20092;-75
2023/12/10 16:20:49;;;;;;;9.10;1.98;;;9.00;99.90;;;;;;6176639;23;20395;-76
2023/12/10 16:23:15;;;;;;;14.00;2.03;;;8.90;99.90;;;;;;6175190;23;20171;-76
2023/12/10 16:25:40;;;;;;;13.13;2.92;;;8.90;99.90;;;;;;6178424;23;20489;-75
2023/12/10 16:28:06;;;;;;;12.13;2.22;;;8.90;99.90;;;;;;6178534;23;20016;-74
2023/12/10 16:30:32;;;;;;;8.57;1.63;;;8.80;99.90;;;;;;6175923;23;20018;-75
2023/12/10 16:32:58;;;;;;;19.98;3.35;;;8.80;99.90;;;;;;6175054;23;20017;-75
2023/12/10 16:35:23;;;;;;;10.02;1.98;;;8.80;99.90;;;;;;6172335;23;20384;-75
2023/12/10 16:37:49;;;;;;;13.38;2.55;;;8.80;99.90;;;;;;6173037;23;20013;-73
2023/12/10 16:40:15;;;;;;;13.93;2.53;;;8.90;99.90;;;;;;6175356;23;20095;-74
2023/12/10 16:42:41;;;;;;;20.45;2.25;;;8.80;99.90;;;;;;6178266;23;20009;-72
2023/12/10 16:45:09;;;;;;;12.23;1.65;;;8.80;99.90;;;;;;6179828;23;20016;-74
2023/12/10 16:47:35;;;;;;;13.00;2.42;;;8.80;99.90;;;;;;6177169;23;20409;-73
2023/12/10 16:50:00;;;;;;;15.40;2.25;;;8.80;99.90;;;;;;6177306;23;20040;-75
2023/12/10 16:52:26;;;;;;;9.48;2.97;;;8.80;99.90;;;;;;6177267;23;20052;-73
2023/12/10 16:54:52;;;;;;;16.70;1.95;;;8.80;99.90;;;;;;6178297;23;20343;-74
2023/12/10 16:57:18;;;;;;;23.88;3.20;;;8.70;99.90;;;;;;6178397;23;20012;-72
2023/12/10 16:59:43;;;;;;;19.45;2.55;;;8.70;99.90;;;;;;6178686;23;20097;-75
2023/12/10 17:02:09;;;;;;;11.60;2.55;;;8.70;99.90;;;;;;6179455;23;20057;-73
2023/12/10 17:04:34;;;;;;;17.27;2.90;;;8.60;99.90;;;;;;6176795;23;20466;-74
2023/12/10 17:07:00;;;;;;;13.93;2.38;;;8.70;99.90;;;;;;6177441;23;20438;-74
2023/12/10 17:09:27;;;;;;;24.55;3.28;;;8.60;99.90;;;;;;6177624;23;20013;-74
2023/12/10 17:11:54;;;;;;;23.20;3.97;;;8.60;99.90;;;;;;6175911;23;20072;-74
2023/12/10 17:14:20;;;;;;;17.27;2.13;;;8.60;99.90;;;;;;6180004;23;19998;-73
2023/12/10 17:16:45;;;;;;;16.67;3.83;;;8.60;99.90;;;;;;6176038;23;20076;-73
2023/12/10 17:19:11;;;;;;;16.33;2.40;;;8.60;99.90;;;;;;6179460;23;20005;-73
2023/12/10 17:21:36;;;;;;;14.30;1.75;;;8.50;99.90;;;;;;6176818;23;20013;-73